sensor_id;sensor_type;location;lat;lon;timestamp;pressure;altitude;pressure_sealevel;temperature
74449;BMP280;62878;51.026;4.472;2022-08-14T00:00:49;-6139.56;;;26.36
74449;BMP280;62878;51.026;4.472;2022-08-14T00:03:23;-6137.13;;;26.22
74449;BMP280;62878;51.026;4.472;2022-08-14T00:05:49;-6136.03;;;26.15
74449;BMP280;62878;51.026;4.472;2022-08-14T00:08:14;-6138.47;;;26.30
74449;BMP280;62878;51.026;4.472;2022-08-14T00:10:40;-6137.81;;;26.26
74449;BMP280;62878;51.026;4.472;2022-08-14T00:13:06;-6138.72;;;26.31
74449;BMP280;62878;51.026;4.472;2022-08-14T00:15:35;-6137.88;;;26.26
74449;BMP280;62878;51.026;4.472;2022-08-14T00:18:04;-6138.56;;;26.30
74449;BMP280;62878;51.026;4.472;2022-08-14T00:20:34;-6138.56;;;26.30
74449;BMP280;62878;51.026;4.472;2022-08-14T00:23:00;-6131.84;;;25.90
74449;BMP280;62878;51.026;4.472;2022-08-14T00:25:26;-6136.63;;;26.18
74449;BMP280;62878;51.026;4.472;2022-08-14T00:27:52;-6137.47;;;26.24
74449;BMP280;62878;51.026;4.472;2022-08-14T00:30:18;-6137.38;;;26.23
74449;BMP280;62878;51.026;4.472;2022-08-14T00:32:43;-6138.06;;;26.27
74449;BMP280;62878;51.026;4.472;2022-08-14T00:35:09;-6137.56;;;26.24
74449;BMP280;62878;51.026;4.472;2022-08-14T00:37:41;-6137.56;;;26.24
74449;BMP280;62878;51.026;4.472;2022-08-14T00:40:11;-6137.38;;;26.23
74449;BMP280;62878;51.026;4.472;2022-08-14T00:42:37;-6137.13;;;26.22
74449;BMP280;62878;51.026;4.472;2022-08-14T00:45:05;-6137.88;;;26.26
74449;BMP280;62878;51.026;4.472;2022-08-14T00:47:31;-6136.63;;;26.18
74449;BMP280;62878;51.026;4.472;2022-08-14T00:49:57;-6134.03;;;26.03
74449;BMP280;62878;51.026;4.472;2022-08-14T00:52:24;-6136.97;;;26.21
74449;BMP280;62878;51.026;4.472;2022-08-14T00:54:50;-6136.97;;;26.21
74449;BMP280;62878;51.026;4.472;2022-08-14T00:57:24;-6136.22;;;26.16
74449;BMP280;62878;51.026;4.472;2022-08-14T00:59:50;-6135.78;;;26.13
74449;BMP280;62878;51.026;4.472;2022-08-14T01:02:17;-6136.78;;;26.20
74449;BMP280;62878;51.026;4.472;2022-08-14T01:04:45;-6135.72;;;26.13
74449;BMP280;62878;51.026;4.472;2022-08-14T01:07:13;-6136.38;;;26.17
74449;BMP280;62878;51.026;4.472;2022-08-14T01:09:50;-6135.72;;;26.13
74449;BMP280;62878;51.026;4.472;2022-08-14T01:12:17;-6136.13;;;26.15
74449;BMP280;62878;51.026;4.472;2022-08-14T01:14:42;-6135.88;;;26.14
74449;BMP280;62878;51.026;4.472;2022-08-14T01:17:08;-6135.72;;;26.13
74449;BMP280;62878;51.026;4.472;2022-08-14T01:19:34;-6135.72;;;26.13
74449;BMP280;62878;51.026;4.472;2022-08-14T01:22:18;-6134.94;;;26.08
74449;BMP280;62878;51.026;4.472;2022-08-14T01:24:43;-6134.88;;;26.08
74449;BMP280;62878;51.026;4.472;2022-08-14T01:27:16;-6134.28;;;26.04
74449;BMP280;62878;51.026;4.472;2022-08-14T01:29:44;-6133.28;;;25.98
74449;BMP280;62878;51.026;4.472;2022-08-14T01:32:10;-6134.78;;;26.07
74449;BMP280;62878;51.026;4.472;2022-08-14T01:34:36;-6133.03;;;25.97
74449;BMP280;62878;51.026;4.472;2022-08-14T01:37:01;-6127.50;;;25.64
74449;BMP280;62878;51.026;4.472;2022-08-14T01:39:29;-6134.53;;;26.06
74449;BMP280;62878;51.026;4.472;2022-08-14T01:41:54;-6131.84;;;25.90
74449;BMP280;62878;51.026;4.472;2022-08-14T01:44:27;-6133.69;;;26.01
74449;BMP280;62878;51.026;4.472;2022-08-14T01:46:56;-6133.94;;;26.02
74449;BMP280;62878;51.026;4.472;2022-08-14T01:49:22;-6132.28;;;25.92
74449;BMP280;62878;51.026;4.472;2022-08-14T01:51:48;-6132.69;;;25.95
74449;BMP280;62878;51.026;4.472;2022-08-14T01:54:23;-6133.63;;;26.00
74449;BMP280;62878;51.026;4.472;2022-08-14T01:56:53;-6133.34;;;25.99
74449;BMP280;62878;51.026;4.472;2022-08-14T01:59:32;-6132.84;;;25.96
74449;BMP280;62878;51.026;4.472;2022-08-14T02:02:01;-6130.59;;;25.82
74449;BMP280;62878;51.026;4.472;2022-08-14T02:04:34;-6129.94;;;25.78
74449;BMP280;62878;51.026;4.472;2022-08-14T02:07:00;-6132.19;;;25.92
74449;BMP280;62878;51.026;4.472;2022-08-14T02:09:28;-6132.53;;;25.94
74449;BMP280;62878;51.026;4.472;2022-08-14T02:12:00;-6132.19;;;25.92
74449;BMP280;62878;51.026;4.472;2022-08-14T02:14:25;-6132.34;;;25.93
74449;BMP280;62878;51.026;4.472;2022-08-14T02:16:51;-6130.69;;;25.83
74449;BMP280;62878;51.026;4.472;2022-08-14T02:19:19;-6131.34;;;25.87
74449;BMP280;62878;51.026;4.472;2022-08-14T02:21:47;-6131.84;;;25.90
74449;BMP280;62878;51.026;4.472;2022-08-14T02:24:13;-6131.69;;;25.89
74449;BMP280;62878;51.026;4.472;2022-08-14T02:26:41;-6131.84;;;25.90
74449;BMP280;62878;51.026;4.472;2022-08-14T02:29:13;-6131.44;;;25.87
74449;BMP280;62878;51.026;4.472;2022-08-14T02:31:41;-6131.09;;;25.85
74449;BMP280;62878;51.026;4.472;2022-08-14T02:34:16;-6123.66;;;25.40
74449;BMP280;62878;51.026;4.472;2022-08-14T02:36:46;-6129.25;;;25.74
74449;BMP280;62878;51.026;4.472;2022-08-14T02:39:12;-6130.69;;;25.83
74449;BMP280;62878;51.026;4.472;2022-08-14T02:41:39;-6130.75;;;25.83
74449;BMP280;62878;51.026;4.472;2022-08-14T02:44:07;-6130.25;;;25.80
74449;BMP280;62878;51.026;4.472;2022-08-14T02:46:35;-6130.19;;;25.80
74449;BMP280;62878;51.026;4.472;2022-08-14T02:49:03;-6129.59;;;25.76
74449;BMP280;62878;51.026;4.472;2022-08-14T02:51:33;-6130.00;;;25.79
74449;BMP280;62878;51.026;4.472;2022-08-14T02:53:59;-6129.69;;;25.77
74449;BMP280;62878;51.026;4.472;2022-08-14T02:56:26;-6129.75;;;25.77
74449;BMP280;62878;51.026;4.472;2022-08-14T02:58:54;-6127.66;;;25.65
74449;BMP280;62878;51.026;4.472;2022-08-14T03:01:21;-6129.69;;;25.77
74449;BMP280;62878;51.026;4.472;2022-08-14T03:03:52;-6126.50;;;25.58
74449;BMP280;62878;51.026;4.472;2022-08-14T03:06:18;-6129.34;;;25.75
74449;BMP280;62878;51.026;4.472;2022-08-14T03:08:45;-6128.34;;;25.69
74449;BMP280;62878;51.026;4.472;2022-08-14T03:11:13;-6128.91;;;25.72
74449;BMP280;62878;51.026;4.472;2022-08-14T03:13:44;-6123.16;;;25.37
74449;BMP280;62878;51.026;4.472;2022-08-14T03:16:13;-6128.59;;;25.70
74449;BMP280;62878;51.026;4.472;2022-08-14T03:18:41;-6126.81;;;25.60
74449;BMP280;62878;51.026;4.472;2022-08-14T03:21:09;-6127.59;;;25.64
74449;BMP280;62878;51.026;4.472;2022-08-14T03:23:44;-6128.09;;;25.67
74449;BMP280;62878;51.026;4.472;2022-08-14T03:26:13;-6127.91;;;25.66
74449;BMP280;62878;51.026;4.472;2022-08-14T03:28:46;-6127.34;;;25.63
74449;BMP280;62878;51.026;4.472;2022-08-14T03:31:12;-6127.50;;;25.64
74449;BMP280;62878;51.026;4.472;2022-08-14T03:33:38;-6124.75;;;25.47
74449;BMP280;62878;51.026;4.472;2022-08-14T03:36:10;-6127.09;;;25.61
74449;BMP280;62878;51.026;4.472;2022-08-14T03:38:38;-6126.81;;;25.60
74449;BMP280;62878;51.026;4.472;2022-08-14T03:41:40;-6124.91;;;25.48
74449;BMP280;62878;51.026;4.472;2022-08-14T03:44:02;-6126.75;;;25.59
74449;BMP280;62878;51.026;4.472;2022-08-14T03:46:30;-6126.75;;;25.59
74449;BMP280;62878;51.026;4.472;2022-08-14T03:48:56;-6125.66;;;25.52
74449;BMP280;62878;51.026;4.472;2022-08-14T03:51:23;-6126.41;;;25.57
74449;BMP280;62878;51.026;4.472;2022-08-14T03:53:55;-6126.00;;;25.55
74449;BMP280;62878;51.026;4.472;2022-08-14T03:56:24;-6123.97;;;25.42
74449;BMP280;62878;51.026;4.472;2022-08-14T03:58:53;-6125.56;;;25.52
74449;BMP280;62878;51.026;4.472;2022-08-14T04:01:21;-6125.81;;;25.54
74449;BMP280;62878;51.026;4.472;2022-08-14T04:03:50;-6125.66;;;25.52
74449;BMP280;62878;51.026;4.472;2022-08-14T04:06:16;-6125.50;;;25.52
74449;BMP280;62878;51.026;4.472;2022-08-14T04:08:42;-6125.16;;;25.49
74449;BMP280;62878;51.026;4.472;2022-08-14T04:11:09;-6123.97;;;25.42
74449;BMP280;62878;51.026;4.472;2022-08-14T04:13:37;-6125.16;;;25.49
74449;BMP280;62878;51.026;4.472;2022-08-14T04:16:06;-6125.06;;;25.49
74449;BMP280;62878;51.026;4.472;2022-08-14T04:18:31;-6124.31;;;25.44
74449;BMP280;62878;51.026;4.472;2022-08-14T04:20:57;-6124.66;;;25.46
74449;BMP280;62878;51.026;4.472;2022-08-14T04:23:23;-6124.31;;;25.44
74449;BMP280;62878;51.026;4.472;2022-08-14T04:25:49;-6122.56;;;25.34
74449;BMP280;62878;51.026;4.472;2022-08-14T04:28:18;-6124.16;;;25.43
74449;BMP280;62878;51.026;4.472;2022-08-14T04:30:43;-6123.81;;;25.41
74449;BMP280;62878;51.026;4.472;2022-08-14T04:33:10;-6123.81;;;25.41
74449;BMP280;62878;51.026;4.472;2022-08-14T04:35:36;-6123.66;;;25.40
74449;BMP280;62878;51.026;4.472;2022-08-14T04:38:05;-6122.31;;;25.32
74449;BMP280;62878;51.026;4.472;2022-08-14T04:40:49;-6123.06;;;25.37
74449;BMP280;62878;51.026;4.472;2022-08-14T04:43:33;-6121.56;;;25.28
74449;BMP280;62878;51.026;4.472;2022-08-14T04:48:30;-6121.72;;;25.29
74449;BMP280;62878;51.026;4.472;2022-08-14T04:50:56;-6122.31;;;25.32
74449;BMP280;62878;51.026;4.472;2022-08-14T04:53:24;-6122.47;;;25.33
74449;BMP280;62878;51.026;4.472;2022-08-14T04:55:50;-6122.31;;;25.32
74449;BMP280;62878;51.026;4.472;2022-08-14T04:58:19;-6121.38;;;25.27
74449;BMP280;62878;51.026;4.472;2022-08-14T05:00:46;-6118.13;;;25.07
74449;BMP280;62878;51.026;4.472;2022-08-14T05:03:19;-6121.63;;;25.28
74449;BMP280;62878;51.026;4.472;2022-08-14T05:05:55;-6121.13;;;25.25
74449;BMP280;62878;51.026;4.472;2022-08-14T05:08:22;-6121.63;;;25.28
74449;BMP280;62878;51.026;4.472;2022-08-14T05:10:53;-6121.13;;;25.25
74449;BMP280;62878;51.026;4.472;2022-08-14T05:13:24;-6120.28;;;25.20
74449;BMP280;62878;51.026;4.472;2022-08-14T05:15:51;-6119.88;;;25.18
74449;BMP280;62878;51.026;4.472;2022-08-14T05:18:25;-6120.53;;;25.22
74449;BMP280;62878;51.026;4.472;2022-08-14T05:20:52;-6120.38;;;25.21
74449;BMP280;62878;51.026;4.472;2022-08-14T05:23:20;-6120.53;;;25.22
74449;BMP280;62878;51.026;4.472;2022-08-14T05:25:48;-6120.47;;;25.21
74449;BMP280;62878;51.026;4.472;2022-08-14T05:28:18;-6120.38;;;25.21
74449;BMP280;62878;51.026;4.472;2022-08-14T05:30:59;-6120.28;;;25.20
74449;BMP280;62878;51.026;4.472;2022-08-14T05:33:26;-6119.88;;;25.18
74449;BMP280;62878;51.026;4.472;2022-08-14T05:35:57;-6119.78;;;25.17
74449;BMP280;62878;51.026;4.472;2022-08-14T05:38:29;-6119.63;;;25.16
74449;BMP280;62878;51.026;4.472;2022-08-14T05:41:09;-6119.38;;;25.15
74449;BMP280;62878;51.026;4.472;2022-08-14T05:43:37;-6119.47;;;25.15
74449;BMP280;62878;51.026;4.472;2022-08-14T05:46:03;-6119.63;;;25.16
74449;BMP280;62878;51.026;4.472;2022-08-14T05:48:29;-6119.38;;;25.15
74449;BMP280;62878;51.026;4.472;2022-08-14T05:50:55;-6117.94;;;25.06
74449;BMP280;62878;51.026;4.472;2022-08-14T05:53:25;-6118.28;;;25.08
74449;BMP280;62878;51.026;4.472;2022-08-14T05:55:51;-6119.13;;;25.13
74449;BMP280;62878;51.026;4.472;2022-08-14T05:58:17;-6119.28;;;25.14
74449;BMP280;62878;51.026;4.472;2022-08-14T06:00:44;-6119.03;;;25.13
74449;BMP280;62878;51.026;4.472;2022-08-14T06:03:15;-6117.28;;;25.02
74449;BMP280;62878;51.026;4.472;2022-08-14T06:05:44;-6119.03;;;25.13
74449;BMP280;62878;51.026;4.472;2022-08-14T06:08:24;-6118.38;;;25.09
74449;BMP280;62878;51.026;4.472;2022-08-14T06:10:50;-6118.94;;;25.12
74449;BMP280;62878;51.026;4.472;2022-08-14T06:13:17;-6118.69;;;25.11
74449;BMP280;62878;51.026;4.472;2022-08-14T06:15:44;-6118.88;;;25.12
74449;BMP280;62878;51.026;4.472;2022-08-14T06:18:09;-6117.94;;;25.06
74449;BMP280;62878;51.026;4.472;2022-08-14T06:20:36;-6113.69;;;24.80
74449;BMP280;62878;51.026;4.472;2022-08-14T06:23:02;-6118.78;;;25.11
74449;BMP280;62878;51.026;4.472;2022-08-14T06:25:27;-6117.44;;;25.03
74449;BMP280;62878;51.026;4.472;2022-08-14T06:27:53;-6118.28;;;25.08
74449;BMP280;62878;51.026;4.472;2022-08-14T06:30:22;-6118.63;;;25.10
74449;BMP280;62878;51.026;4.472;2022-08-14T06:32:49;-6116.78;;;24.99
74449;BMP280;62878;51.026;4.472;2022-08-14T06:35:15;-6118.13;;;25.07
74449;BMP280;62878;51.026;4.472;2022-08-14T06:37:52;-6117.88;;;25.06
74449;BMP280;62878;51.026;4.472;2022-08-14T06:42:51;-6117.78;;;25.05
74449;BMP280;62878;51.026;4.472;2022-08-14T06:45:17;-6117.63;;;25.04
74449;BMP280;62878;51.026;4.472;2022-08-14T06:47:44;-6117.78;;;25.05
74449;BMP280;62878;51.026;4.472;2022-08-14T06:50:14;-6116.69;;;24.99
74449;BMP280;62878;51.026;4.472;2022-08-14T06:52:40;-6118.03;;;25.07
74449;BMP280;62878;51.026;4.472;2022-08-14T06:55:07;-6117.88;;;25.06
74449;BMP280;62878;51.026;4.472;2022-08-14T06:57:38;-6114.09;;;24.83
74449;BMP280;62878;51.026;4.472;2022-08-14T07:00:09;-6117.03;;;25.01
74449;BMP280;62878;51.026;4.472;2022-08-14T07:02:35;-6117.09;;;25.01
74449;BMP280;62878;51.026;4.472;2022-08-14T07:05:19;-6116.78;;;24.99
74449;BMP280;62878;51.026;4.472;2022-08-14T07:08:03;-6117.38;;;25.03
74449;BMP280;62878;51.026;4.472;2022-08-14T07:10:30;-6115.69;;;24.93
74449;BMP280;62878;51.026;4.472;2022-08-14T07:12:55;-6117.28;;;25.02
74449;BMP280;62878;51.026;4.472;2022-08-14T07:15:20;-6117.03;;;25.01
74449;BMP280;62878;51.026;4.472;2022-08-14T07:17:47;-6115.59;;;24.92
74449;BMP280;62878;51.026;4.472;2022-08-14T07:20:13;-6116.84;;;25.00
74449;BMP280;62878;51.026;4.472;2022-08-14T07:22:38;-6116.78;;;24.99
74449;BMP280;62878;51.026;4.472;2022-08-14T07:25:04;-6116.53;;;24.98
74449;BMP280;62878;51.026;4.472;2022-08-14T07:27:30;-6115.69;;;24.93
74449;BMP280;62878;51.026;4.472;2022-08-14T07:29:56;-6116.78;;;24.99
74449;BMP280;62878;51.026;4.472;2022-08-14T07:32:22;-6115.09;;;24.89
74449;BMP280;62878;51.026;4.472;2022-08-14T07:34:48;-6116.28;;;24.96
74449;BMP280;62878;51.026;4.472;2022-08-14T07:37:13;-6112.41;;;24.73
74449;BMP280;62878;51.026;4.472;2022-08-14T07:39:39;-6116.09;;;24.95
74449;BMP280;62878;51.026;4.472;2022-08-14T07:42:04;-6116.34;;;24.97
74449;BMP280;62878;51.026;4.472;2022-08-14T07:44:30;-6112.50;;;24.73
74449;BMP280;62878;51.026;4.472;2022-08-14T07:46:55;-6113.41;;;24.79
74449;BMP280;62878;51.026;4.472;2022-08-14T07:49:21;-6116.28;;;24.96
74449;BMP280;62878;51.026;4.472;2022-08-14T07:51:46;-6115.25;;;24.90
74449;BMP280;62878;51.026;4.472;2022-08-14T07:54:12;-6116.44;;;24.97
74449;BMP280;62878;51.026;4.472;2022-08-14T07:56:40;-6116.94;;;25.00
74449;BMP280;62878;51.026;4.472;2022-08-14T07:59:05;-6116.94;;;25.00
74449;BMP280;62878;51.026;4.472;2022-08-14T08:01:31;-6116.59;;;24.98
74449;BMP280;62878;51.026;4.472;2022-08-14T08:03:57;-6113.25;;;24.78
74449;BMP280;62878;51.026;4.472;2022-08-14T08:14:10;-6115.94;;;24.94
74449;BMP280;62878;51.026;4.472;2022-08-14T08:16:35;-6117.38;;;25.03
74449;BMP280;62878;51.026;4.472;2022-08-14T08:19:03;-6117.19;;;25.02
74449;BMP280;62878;51.026;4.472;2022-08-14T08:21:28;-6117.28;;;25.02
74449;BMP280;62878;51.026;4.472;2022-08-14T08:23:53;-6113.50;;;24.79
74449;BMP280;62878;51.026;4.472;2022-08-14T08:26:19;-6117.09;;;25.01
74449;BMP280;62878;51.026;4.472;2022-08-14T08:28:54;-6116.78;;;24.99
74449;BMP280;62878;51.026;4.472;2022-08-14T08:31:20;-6117.09;;;25.01
74449;BMP280;62878;51.026;4.472;2022-08-14T08:33:55;-6117.44;;;25.03
74449;BMP280;62878;51.026;4.472;2022-08-14T08:36:39;-6116.59;;;24.98
74449;BMP280;62878;51.026;4.472;2022-08-14T08:39:05;-6117.19;;;25.02
74449;BMP280;62878;51.026;4.472;2022-08-14T08:41:46;-6114.69;;;24.87
74449;BMP280;62878;51.026;4.472;2022-08-14T08:44:12;-6116.59;;;24.98
74449;BMP280;62878;51.026;4.472;2022-08-14T08:46:38;-6115.34;;;24.91
74449;BMP280;62878;51.026;4.472;2022-08-14T08:49:04;-6116.44;;;24.97
74449;BMP280;62878;51.026;4.472;2022-08-14T08:51:35;-6115.94;;;24.94
74449;BMP280;62878;51.026;4.472;2022-08-14T08:54:11;-6114.84;;;24.88
74449;BMP280;62878;51.026;4.472;2022-08-14T08:56:43;-6115.59;;;24.92
74449;BMP280;62878;51.026;4.472;2022-08-14T08:59:26;-6115.19;;;24.90
74449;BMP280;62878;51.026;4.472;2022-08-14T09:02:03;-6115.78;;;24.93
74449;BMP280;62878;51.026;4.472;2022-08-14T09:04:36;-6116.28;;;24.96
74449;BMP280;62878;51.026;4.472;2022-08-14T09:07:04;-6115.78;;;24.93
74449;BMP280;62878;51.026;4.472;2022-08-14T09:09:31;-6115.69;;;24.93
74449;BMP280;62878;51.026;4.472;2022-08-14T09:11:58;-6113.94;;;24.82
74449;BMP280;62878;51.026;4.472;2022-08-14T09:14:26;-6115.00;;;24.88
74449;BMP280;62878;51.026;4.472;2022-08-14T09:16:54;-6115.94;;;24.94
74449;BMP280;62878;51.026;4.472;2022-08-14T09:19:20;-6116.09;;;24.95
74449;BMP280;62878;51.026;4.472;2022-08-14T09:21:47;-6116.84;;;25.00
74449;BMP280;62878;51.026;4.472;2022-08-14T09:24:12;-6117.88;;;25.06
74449;BMP280;62878;51.026;4.472;2022-08-14T09:26:38;-6118.38;;;25.09
74449;BMP280;62878;51.026;4.472;2022-08-14T09:29:06;-6116.09;;;24.95
74449;BMP280;62878;51.026;4.472;2022-08-14T09:39:32;-6114.84;;;24.88
74449;BMP280;62878;51.026;4.472;2022-08-14T09:45:20;-6116.28;;;24.96
74449;BMP280;62878;51.026;4.472;2022-08-14T09:47:51;-6115.44;;;24.91
74449;BMP280;62878;51.026;4.472;2022-08-14T09:50:25;-6117.09;;;25.01
74449;BMP280;62878;51.026;4.472;2022-08-14T09:53:05;-6116.94;;;25.00
74449;BMP280;62878;51.026;4.472;2022-08-14T09:55:34;-6116.69;;;24.99
74449;BMP280;62878;51.026;4.472;2022-08-14T09:58:17;-6115.50;;;24.92
74449;BMP280;62878;51.026;4.472;2022-08-14T10:00:48;-6117.03;;;25.01
74449;BMP280;62878;51.026;4.472;2022-08-14T10:03:31;-6116.44;;;24.97
74449;BMP280;62878;51.026;4.472;2022-08-14T10:11:30;-6117.28;;;25.02
74449;BMP280;62878;51.026;4.472;2022-08-14T10:14:19;-6116.94;;;25.00
74449;BMP280;62878;51.026;4.472;2022-08-14T10:16:47;-6118.28;;;25.08
74449;BMP280;62878;51.026;4.472;2022-08-14T10:19:15;-6117.19;;;25.02
74449;BMP280;62878;51.026;4.472;2022-08-14T10:21:58;-6118.28;;;25.08
74449;BMP280;62878;51.026;4.472;2022-08-14T10:24:36;-6117.69;;;25.05
74449;BMP280;62878;51.026;4.472;2022-08-14T10:27:14;-6118.28;;;25.08
74449;BMP280;62878;51.026;4.472;2022-08-14T10:29:47;-6118.38;;;25.09
74449;BMP280;62878;51.026;4.472;2022-08-14T10:32:12;-6116.53;;;24.98
74449;BMP280;62878;51.026;4.472;2022-08-14T10:34:39;-6118.63;;;25.10
74449;BMP280;62878;51.026;4.472;2022-08-14T10:37:10;-6118.78;;;25.11
74449;BMP280;62878;51.026;4.472;2022-08-14T10:39:39;-6119.53;;;25.16
74449;BMP280;62878;51.026;4.472;2022-08-14T10:42:11;-6118.03;;;25.07
74449;BMP280;62878;51.026;4.472;2022-08-14T10:44:39;-6118.38;;;25.09
74449;BMP280;62878;51.026;4.472;2022-08-14T10:47:06;-6118.44;;;25.09
74449;BMP280;62878;51.026;4.472;2022-08-14T10:49:34;-6117.28;;;25.02
74449;BMP280;62878;51.026;4.472;2022-08-14T10:52:10;-6118.63;;;25.10
74449;BMP280;62878;51.026;4.472;2022-08-14T10:54:38;-6118.28;;;25.08
74449;BMP280;62878;51.026;4.472;2022-08-14T11:00:00;-6119.13;;;25.13
74449;BMP280;62878;51.026;4.472;2022-08-14T11:02:30;-6120.28;;;25.20
74449;BMP280;62878;51.026;4.472;2022-08-14T11:05:13;-6120.28;;;25.20
74449;BMP280;62878;51.026;4.472;2022-08-14T11:10:21;-6121.88;;;25.30
74449;BMP280;62878;51.026;4.472;2022-08-14T11:12:50;-6121.47;;;25.27
74449;BMP280;62878;51.026;4.472;2022-08-14T11:15:26;-6121.63;;;25.28
74449;BMP280;62878;51.026;4.472;2022-08-14T11:17:53;-6122.31;;;25.32
74449;BMP280;62878;51.026;4.472;2022-08-14T11:20:23;-6121.97;;;25.30
74449;BMP280;62878;51.026;4.472;2022-08-14T11:22:57;-6119.22;;;25.14
74449;BMP280;62878;51.026;4.472;2022-08-14T11:25:28;-6121.47;;;25.27
74449;BMP280;62878;51.026;4.472;2022-08-14T11:27:56;-6121.97;;;25.30
74449;BMP280;62878;51.026;4.472;2022-08-14T11:30:26;-6122.31;;;25.32
74449;BMP280;62878;51.026;4.472;2022-08-14T11:32:52;-6122.63;;;25.34
74449;BMP280;62878;51.026;4.472;2022-08-14T11:35:23;-6122.97;;;25.36
74449;BMP280;62878;51.026;4.472;2022-08-14T11:37:50;-6122.38;;;25.33
74449;BMP280;62878;51.026;4.472;2022-08-14T11:40:17;-6122.31;;;25.32
74449;BMP280;62878;51.026;4.472;2022-08-14T11:42:47;-6123.16;;;25.37
74449;BMP280;62878;51.026;4.472;2022-08-14T11:45:16;-6121.81;;;25.29
74449;BMP280;62878;51.026;4.472;2022-08-14T11:47:42;-6121.38;;;25.27
74449;BMP280;62878;51.026;4.472;2022-08-14T11:50:12;-6122.31;;;25.32
74449;BMP280;62878;51.026;4.472;2022-08-14T11:52:38;-6121.22;;;25.26
74449;BMP280;62878;51.026;4.472;2022-08-14T11:55:07;-6123.66;;;25.40
74449;BMP280;62878;51.026;4.472;2022-08-14T11:57:33;-6123.56;;;25.40
74449;BMP280;62878;51.026;4.472;2022-08-14T12:00:06;-6123.38;;;25.39
74449;BMP280;62878;51.026;4.472;2022-08-14T12:02:33;-6123.16;;;25.37
74449;BMP280;62878;51.026;4.472;2022-08-14T12:04:58;-6124.75;;;25.47
74449;BMP280;62878;51.026;4.472;2022-08-14T12:07:24;-6125.22;;;25.50
74449;BMP280;62878;51.026;4.472;2022-08-14T12:09:54;-6126.00;;;25.55
74449;BMP280;62878;51.026;4.472;2022-08-14T12:12:27;-6126.06;;;25.55
74449;BMP280;62878;51.026;4.472;2022-08-14T12:14:58;-6125.16;;;25.49
74449;BMP280;62878;51.026;4.472;2022-08-14T12:17:30;-6124.75;;;25.47
74449;BMP280;62878;51.026;4.472;2022-08-14T12:20:04;-6125.16;;;25.49
74449;BMP280;62878;51.026;4.472;2022-08-14T12:25:05;-6125.50;;;25.52
74449;BMP280;62878;51.026;4.472;2022-08-14T12:27:38;-6124.97;;;25.48
74449;BMP280;62878;51.026;4.472;2022-08-14T12:30:04;-6124.06;;;25.43
74449;BMP280;62878;51.026;4.472;2022-08-14T12:32:43;-6122.97;;;25.36
74449;BMP280;62878;51.026;4.472;2022-08-14T12:35:12;-6124.41;;;25.45
74449;BMP280;62878;51.026;4.472;2022-08-14T12:37:38;-6125.22;;;25.50
74449;BMP280;62878;51.026;4.472;2022-08-14T12:40:13;-6123.66;;;25.40
74449;BMP280;62878;51.026;4.472;2022-08-14T12:42:39;-6125.06;;;25.49
74449;BMP280;62878;51.026;4.472;2022-08-14T12:45:06;-6124.97;;;25.48
74449;BMP280;62878;51.026;4.472;2022-08-14T12:47:32;-6125.22;;;25.50
74449;BMP280;62878;51.026;4.472;2022-08-14T12:49:57;-6125.50;;;25.52
74449;BMP280;62878;51.026;4.472;2022-08-14T12:52:42;-6124.81;;;25.47
74449;BMP280;62878;51.026;4.472;2022-08-14T12:55:13;-6124.41;;;25.45
74449;BMP280;62878;51.026;4.472;2022-08-14T12:57:43;-6125.16;;;25.49
74449;BMP280;62878;51.026;4.472;2022-08-14T13:02:42;-6125.06;;;25.49
74449;BMP280;62878;51.026;4.472;2022-08-14T13:05:09;-6125.56;;;25.52
74449;BMP280;62878;51.026;4.472;2022-08-14T13:07:37;-6125.66;;;25.52
74449;BMP280;62878;51.026;4.472;2022-08-14T13:10:05;-6125.50;;;25.52
74449;BMP280;62878;51.026;4.472;2022-08-14T13:12:31;-6126.06;;;25.55
74449;BMP280;62878;51.026;4.472;2022-08-14T13:14:57;-6126.00;;;25.55
74449;BMP280;62878;51.026;4.472;2022-08-14T13:17:27;-6126.66;;;25.59
74449;BMP280;62878;51.026;4.472;2022-08-14T13:19:55;-6125.41;;;25.51
74449;BMP280;62878;51.026;4.472;2022-08-14T13:22:24;-6127.16;;;25.62
74449;BMP280;62878;51.026;4.472;2022-08-14T13:24:53;-6126.75;;;25.59
74449;BMP280;62878;51.026;4.472;2022-08-14T13:27:22;-6127.84;;;25.66
74449;BMP280;62878;51.026;4.472;2022-08-14T13:29:51;-6127.84;;;25.66
74449;BMP280;62878;51.026;4.472;2022-08-14T13:32:17;-6128.59;;;25.70
74449;BMP280;62878;51.026;4.472;2022-08-14T13:34:46;-6127.34;;;25.63
74449;BMP280;62878;51.026;4.472;2022-08-14T13:37:14;-6127.25;;;25.62
74449;BMP280;62878;51.026;4.472;2022-08-14T13:39:45;-6126.81;;;25.60
74449;BMP280;62878;51.026;4.472;2022-08-14T13:42:11;-6129.09;;;25.73
74449;BMP280;62878;51.026;4.472;2022-08-14T13:44:40;-6130.25;;;25.80
74449;BMP280;62878;51.026;4.472;2022-08-14T13:47:06;-6130.44;;;25.81
74449;BMP280;62878;51.026;4.472;2022-08-14T13:49:32;-6130.19;;;25.80
74449;BMP280;62878;51.026;4.472;2022-08-14T13:52:00;-6130.94;;;25.84
74449;BMP280;62878;51.026;4.472;2022-08-14T13:54:28;-6130.69;;;25.83
74449;BMP280;62878;51.026;4.472;2022-08-14T13:57:00;-6131.34;;;25.87
74449;BMP280;62878;51.026;4.472;2022-08-14T13:59:28;-6131.03;;;25.85
74449;BMP280;62878;51.026;4.472;2022-08-14T14:02:03;-6130.25;;;25.80
74449;BMP280;62878;51.026;4.472;2022-08-14T14:04:30;-6130.44;;;25.81
74449;BMP280;62878;51.026;4.472;2022-08-14T14:06:59;-6131.03;;;25.85
74449;BMP280;62878;51.026;4.472;2022-08-14T14:09:29;-6130.19;;;25.80
74449;BMP280;62878;51.026;4.472;2022-08-14T14:11:57;-6130.19;;;25.80
74449;BMP280;62878;51.026;4.472;2022-08-14T14:14:23;-6127.66;;;25.65
74449;BMP280;62878;51.026;4.472;2022-08-14T14:16:49;-6128.25;;;25.68
74449;BMP280;62878;51.026;4.472;2022-08-14T14:19:18;-6132.03;;;25.91
74449;BMP280;62878;51.026;4.472;2022-08-14T14:21:48;-6131.94;;;25.90
74449;BMP280;62878;51.026;4.472;2022-08-14T14:24:14;-6129.69;;;25.77
74449;BMP280;62878;51.026;4.472;2022-08-14T14:26:46;-6130.50;;;25.82
74449;BMP280;62878;51.026;4.472;2022-08-14T14:29:11;-6132.03;;;25.91
74449;BMP280;62878;51.026;4.472;2022-08-14T14:31:39;-6132.09;;;25.91
74449;BMP280;62878;51.026;4.472;2022-08-14T14:34:05;-6132.28;;;25.92
74449;BMP280;62878;51.026;4.472;2022-08-14T14:36:34;-6131.53;;;25.88
74449;BMP280;62878;51.026;4.472;2022-08-14T14:39:09;-6131.19;;;25.86
74449;BMP280;62878;51.026;4.472;2022-08-14T14:41:38;-6131.69;;;25.89
74449;BMP280;62878;51.026;4.472;2022-08-14T14:44:06;-6131.59;;;25.88
74449;BMP280;62878;51.026;4.472;2022-08-14T14:46:37;-6131.69;;;25.89
74449;BMP280;62878;51.026;4.472;2022-08-14T14:49:06;-6132.03;;;25.91
74449;BMP280;62878;51.026;4.472;2022-08-14T14:51:37;-6131.59;;;25.88
74449;BMP280;62878;51.026;4.472;2022-08-14T14:54:06;-6131.59;;;25.88
74449;BMP280;62878;51.026;4.472;2022-08-14T14:56:32;-6131.59;;;25.88
74449;BMP280;62878;51.026;4.472;2022-08-14T14:58:58;-6131.34;;;25.87